createdAt,value
2023-06-17T00:00:07.056Z,996.31
2023-06-17T00:00:34.574Z,996.24
2023-06-17T00:00:55.047Z,996.24
2023-06-17T00:01:27.182Z,996.24
2023-06-17T00:02:00.626Z,996.24
2023-06-17T00:02:31.129Z,996.24
2023-06-17T00:03:04.190Z,996.31
2023-06-17T00:03:34.143Z,996.24
2023-06-17T00:03:52.084Z,996.24
2023-06-17T00:04:23.411Z,996.24
2023-06-17T00:04:40.435Z,996.24
2023-06-17T00:05:11.892Z,996.24
2023-06-17T00:05:34.418Z,996.31
2023-06-17T00:05:59.043Z,996.31
2023-06-17T00:06:31.972Z,996.31
2023-06-17T00:07:04.002Z,996.14
2023-06-17T00:07:34.558Z,996.14
2023-06-17T00:07:50.943Z,996.14
2023-06-17T00:08:23.922Z,996.14
2023-06-17T00:08:42.041Z,996.31
2023-06-17T00:09:11.208Z,996.31
2023-06-17T00:09:34.128Z,996.24
2023-06-17T00:09:59.201Z,996.24
2023-06-17T00:10:31.888Z,996.24
2023-06-17T00:11:03.121Z,996.14
2023-06-17T00:11:35.080Z,996.14
2023-06-17T00:12:06.976Z,996.14
2023-06-17T00:12:34.571Z,996.24
2023-06-17T00:12:55.128Z,996.24
2023-06-17T00:13:26.962Z,996.24
2023-06-17T00:14:00.060Z,996.14
2023-06-17T00:14:33.251Z,996.14
2023-06-17T00:15:04.478Z,996.24
2023-06-17T00:15:34.460Z,996.24
2023-06-17T00:16:07.411Z,996.24
2023-06-17T00:16:23.771Z,996.24
2023-06-17T00:16:41.482Z,996.14
2023-06-17T00:17:10.994Z,996.14
2023-06-17T00:17:34.148Z,996.14
2023-06-17T00:17:58.916Z,996.14
2023-06-17T00:18:32.256Z,996.14
2023-06-17T00:19:03.021Z,995.94
2023-06-17T00:19:35.471Z,996.14
2023-06-17T00:20:06.930Z,996.14
2023-06-17T00:20:36.075Z,996.14
2023-06-17T00:20:54.957Z,996.14
2023-06-17T00:21:26.878Z,996.14
2023-06-17T00:22:02.057Z,996.04
2023-06-17T00:22:30.948Z,996.04
2023-06-17T00:23:04.080Z,996.04
2023-06-17T00:23:34.186Z,995.94
2023-06-17T00:24:06.362Z,995.94
2023-06-17T00:24:23.984Z,995.94
2023-06-17T00:24:43.693Z,995.83
2023-06-17T00:25:11.935Z,995.83
2023-06-17T00:25:34.283Z,996.04
2023-06-17T00:25:59.058Z,996.04
2023-06-17T00:26:31.958Z,996.04
2023-06-17T00:27:02.916Z,996.14
2023-06-17T00:27:36.231Z,996.14
2023-06-17T00:28:07.114Z,996.14
2023-06-17T00:28:34.234Z,996.14
2023-06-17T00:28:54.879Z,996.14
2023-06-17T00:29:26.908Z,996.14
2023-06-17T00:30:00.091Z,995.83
2023-06-17T00:30:30.980Z,995.83
2023-06-17T00:31:03.716Z,996.04
2023-06-17T00:31:34.121Z,996.04
2023-06-17T00:32:06.555Z,996.04
2023-06-17T00:32:24.853Z,996.04
2023-06-17T00:32:42.409Z,996.04
2023-06-17T00:33:11.033Z,996.04
2023-06-17T00:33:34.152Z,995.94
2023-06-17T00:33:58.918Z,995.94
2023-06-17T00:34:32.007Z,995.94
2023-06-17T00:35:03.401Z,995.94
2023-06-17T00:35:35.137Z,996.04
2023-06-17T00:36:07.022Z,996.04
2023-06-17T00:36:34.263Z,996.14
2023-06-17T00:36:55.643Z,996.14
2023-06-17T00:37:26.861Z,996.14
2023-06-17T00:38:00.246Z,996.04
2023-06-17T00:38:31.013Z,996.04
2023-06-17T00:39:03.983Z,996.24
2023-06-17T00:39:34.140Z,995.94
2023-06-17T00:40:06.313Z,995.94
2023-06-17T00:40:29.118Z,995.94
2023-06-17T00:40:42.180Z,996.31
2023-06-17T00:41:11.465Z,996.31
2023-06-17T00:41:34.397Z,996.24
2023-06-17T00:41:59.062Z,996.24
2023-06-17T00:42:31.906Z,996.24
2023-06-17T00:43:03.013Z,996.04
2023-06-17T00:43:36.232Z,996.14
2023-06-17T00:44:06.883Z,996.14
2023-06-17T00:44:34.291Z,996.04
2023-06-17T00:44:54.888Z,996.04
2023-06-17T00:45:26.914Z,996.04
2023-06-17T00:46:00.306Z,995.83
2023-06-17T00:46:31.019Z,995.83
2023-06-17T00:47:03.813Z,995.94
2023-06-17T00:47:34.114Z,996.04
2023-06-17T00:47:50.707Z,996.04
2023-06-17T00:48:23.121Z,996.04
2023-06-17T00:48:41.305Z,996.24
2023-06-17T00:49:11.905Z,996.24
2023-06-17T00:49:34.363Z,996.04
2023-06-17T00:49:59.030Z,996.04
2023-06-17T00:50:31.021Z,996.04
2023-06-17T00:51:03.316Z,996.04
2023-06-17T00:51:34.174Z,995.94
2023-06-17T00:52:03.632Z,995.94
2023-06-17T00:52:39.510Z,995.94
2023-06-17T00:52:54.945Z,996.24
2023-06-17T00:53:27.787Z,996.24
2023-06-17T00:53:58.971Z,996.14
2023-06-17T00:54:33.617Z,996.14
2023-06-17T00:55:03.465Z,996.14
2023-06-17T00:55:36.806Z,996.14
2023-06-17T00:56:07.350Z,996.14
2023-06-17T00:56:34.340Z,995.94
2023-06-17T00:56:55.186Z,995.94
2023-06-17T00:57:27.025Z,995.94
2023-06-17T00:58:01.158Z,996.24
2023-06-17T00:58:30.886Z,996.24
2023-06-17T00:59:03.849Z,996.24
2023-06-17T00:59:34.126Z,996.14
2023-06-17T00:59:50.708Z,996.14
2023-06-17T01:00:23.340Z,996.14
2023-06-17T01:00:40.122Z,996.04
2023-06-17T01:01:11.782Z,996.04
2023-06-17T01:01:34.202Z,996.04
2023-06-17T01:02:12.363Z,996.04
2023-06-17T01:02:15.792Z,996.04
2023-06-17T01:02:34.207Z,996.14
2023-06-17T01:03:02.947Z,996.14
2023-06-17T01:03:34.172Z,996.04
2023-06-17T01:04:06.959Z,996.04
2023-06-17T01:04:34.166Z,996.04
2023-06-17T01:04:55.877Z,996.04
2023-06-17T01:05:27.800Z,996.04
2023-06-17T01:05:58.894Z,996.04
2023-06-17T01:06:31.801Z,996.04
2023-06-17T01:07:09.971Z,996.04
2023-06-17T01:07:18.920Z,995.94
2023-06-17T01:07:50.948Z,996.04
2023-06-17T01:08:22.841Z,996.04
2023-06-17T01:08:40.971Z,996.04
2023-06-17T01:09:10.862Z,996.04
2023-06-17T01:09:34.140Z,995.94
2023-06-17T01:10:00.290Z,995.94
2023-06-17T01:10:30.852Z,995.94
2023-06-17T01:11:03.896Z,996.04
2023-06-17T01:11:34.262Z,995.94
2023-06-17T01:11:50.713Z,995.94
2023-06-17T01:12:22.868Z,995.94
2023-06-17T01:12:40.161Z,996.14
2023-06-17T01:13:11.764Z,996.14
2023-06-17T01:13:34.819Z,995.83
2023-06-17T01:13:58.874Z,995.83
2023-06-17T01:14:30.899Z,995.83
2023-06-17T01:15:03.330Z,996.14
2023-06-17T01:15:34.319Z,995.83
2023-06-17T01:15:51.904Z,995.83
2023-06-17T01:16:23.831Z,995.83
2023-06-17T01:16:41.114Z,996.04
2023-06-17T01:17:10.882Z,996.04
2023-06-17T01:17:34.226Z,996.14
2023-06-17T01:17:58.900Z,996.14
2023-06-17T01:18:32.686Z,996.14
2023-06-17T01:19:02.834Z,996.04
2023-06-17T01:19:35.238Z,995.94
2023-06-17T01:20:06.820Z,995.94
2023-06-17T01:20:34.170Z,996.04
2023-06-17T01:20:55.172Z,996.04
2023-06-17T01:21:26.931Z,996.04
2023-06-17T01:22:00.140Z,996.04
2023-06-17T01:22:31.004Z,996.04
2023-06-17T01:23:04.256Z,996.04
2023-06-17T01:23:34.120Z,995.94
2023-06-17T01:24:06.447Z,995.94
2023-06-17T01:24:35.351Z,996.14
2023-06-17T01:24:54.857Z,996.14
2023-06-17T01:25:26.840Z,996.14
2023-06-17T01:25:58.867Z,995.94
2023-06-17T01:26:34.320Z,995.94
2023-06-17T01:27:02.868Z,995.94
2023-06-17T01:27:34.307Z,995.94
2023-06-17T01:27:50.628Z,995.94
2023-06-17T01:28:22.819Z,995.94
2023-06-17T01:28:40.367Z,995.94
2023-06-17T01:29:11.966Z,995.94
2023-06-17T01:29:34.128Z,996.04
2023-06-17T01:29:58.882Z,996.04
2023-06-17T01:30:30.851Z,996.04
2023-06-17T01:31:02.871Z,995.94
2023-06-17T01:31:34.121Z,996.14
2023-06-17T01:31:50.606Z,996.14
2023-06-17T01:32:23.837Z,996.14
2023-06-17T01:32:43.616Z,996.04
2023-06-17T01:33:10.867Z,996.04
2023-06-17T01:33:34.269Z,995.94
2023-06-17T01:33:59.127Z,995.94
2023-06-17T01:34:31.763Z,995.94
2023-06-17T01:35:02.822Z,996.14
2023-06-17T01:35:35.022Z,995.83
2023-06-17T01:36:06.850Z,995.83
2023-06-17T01:36:34.154Z,995.94
2023-06-17T01:36:54.800Z,995.94
2023-06-17T01:37:26.850Z,995.94
2023-06-17T01:37:59.775Z,995.94
2023-06-17T01:38:30.845Z,995.94
2023-06-17T01:39:03.812Z,996.04
2023-06-17T01:39:34.104Z,995.94
2023-06-17T01:40:06.395Z,995.94
2023-06-17T01:40:23.969Z,995.94
2023-06-17T01:40:40.929Z,995.94
2023-06-17T01:41:10.830Z,995.94
2023-06-17T01:41:34.202Z,995.94
2023-06-17T01:42:00.577Z,995.94
2023-06-17T01:42:32.214Z,995.94
2023-06-17T01:43:03.849Z,995.73
2023-06-17T01:43:35.045Z,995.83
2023-06-17T01:44:06.841Z,995.83
2023-06-17T01:44:34.129Z,995.83
2023-06-17T01:44:54.814Z,995.83
2023-06-17T01:45:26.850Z,995.83
2023-06-17T01:45:59.736Z,995.83
2023-06-17T01:46:30.844Z,995.83
2023-06-17T01:47:03.753Z,996.04
2023-06-17T01:47:34.144Z,995.83
2023-06-17T01:47:50.822Z,995.83
2023-06-17T01:48:22.871Z,995.83
2023-06-17T01:48:40.033Z,995.94
2023-06-17T01:49:11.827Z,995.94
2023-06-17T01:49:34.120Z,995.94
2023-06-17T01:49:58.849Z,995.94
2023-06-17T01:50:30.805Z,995.94
2023-06-17T01:51:02.806Z,996.04
2023-06-17T01:51:34.114Z,995.83
2023-06-17T01:51:50.616Z,995.83
2023-06-17T01:52:24.718Z,995.83
2023-06-17T01:52:42.013Z,995.94
2023-06-17T01:53:11.806Z,995.94
2023-06-17T01:53:34.120Z,995.73
2023-06-17T01:53:58.806Z,995.73
2023-06-17T01:54:31.845Z,995.73
2023-06-17T01:55:02.843Z,995.94
2023-06-17T01:55:35.032Z,996.04
2023-06-17T01:56:06.811Z,996.04
2023-06-17T01:56:34.131Z,995.73
2023-06-17T01:56:54.832Z,995.73
2023-06-17T01:57:28.801Z,995.73
2023-06-17T01:58:00.751Z,996.04
2023-06-17T01:58:30.832Z,996.04
2023-06-17T01:59:03.721Z,995.83
2023-06-17T01:59:34.467Z,996.04
2023-06-17T02:00:07.738Z,996.04
2023-06-17T02:00:34.813Z,996.14
2023-06-17T02:00:54.813Z,996.14
2023-06-17T02:01:26.800Z,996.14
2023-06-17T02:01:58.836Z,995.83
2023-06-17T02:02:30.819Z,995.83
2023-06-17T02:03:02.965Z,996.24
2023-06-17T02:03:34.192Z,996.04
2023-06-17T02:03:50.690Z,996.04
2023-06-17T02:04:23.842Z,996.04
2023-06-17T02:04:41.696Z,995.94
2023-06-17T02:05:10.899Z,995.94
2023-06-17T02:05:34.126Z,995.94
2023-06-17T02:05:59.624Z,995.94
2023-06-17T02:06:31.724Z,995.94
2023-06-17T02:07:02.831Z,996.14
2023-06-17T02:07:38.409Z,995.94
2023-06-17T02:08:06.767Z,995.94
2023-06-17T02:08:36.110Z,996.14
2023-06-17T02:08:54.877Z,996.14
2023-06-17T02:09:26.872Z,996.14
2023-06-17T02:09:59.814Z,996.04
2023-06-17T02:10:30.901Z,996.04
2023-06-17T02:11:03.827Z,995.94
2023-06-17T02:11:34.117Z,996.14
2023-06-17T02:11:50.594Z,996.14
2023-06-17T02:12:22.798Z,996.14
2023-06-17T02:12:41.196Z,995.83
2023-06-17T02:13:11.761Z,995.83
2023-06-17T02:13:34.091Z,996.04
2023-06-17T02:13:58.820Z,996.04
2023-06-17T02:14:31.193Z,996.04
2023-06-17T02:15:02.956Z,996.04
2023-06-17T02:15:34.590Z,996.14
2023-06-17T02:16:06.865Z,996.14
2023-06-17T02:16:34.135Z,995.94
2023-06-17T02:16:54.813Z,995.94
2023-06-17T02:17:27.588Z,995.94
2023-06-17T02:17:58.878Z,996.14
2023-06-17T02:18:33.082Z,996.14
2023-06-17T02:19:02.824Z,996.04
2023-06-17T02:19:35.237Z,996.14
2023-06-17T02:20:08.604Z,996.14
2023-06-17T02:20:35.970Z,995.94
2023-06-17T02:20:54.784Z,995.94
2023-06-17T02:21:26.862Z,995.94
2023-06-17T02:21:59.673Z,995.73
2023-06-17T02:22:30.831Z,995.73
2023-06-17T02:23:04.493Z,996.04
2023-06-17T02:23:34.151Z,996.04
2023-06-17T02:23:51.023Z,996.04
2023-06-17T02:24:22.860Z,996.04
2023-06-17T02:24:40.340Z,995.94
2023-06-17T02:25:12.616Z,995.94
2023-06-17T02:25:34.139Z,996.04
2023-06-17T02:25:58.802Z,996.04
2023-06-17T02:26:30.799Z,996.04
2023-06-17T02:27:02.769Z,996.04
2023-06-17T02:27:34.109Z,995.83
2023-06-17T02:28:06.786Z,995.83
2023-06-17T02:28:34.476Z,995.94
2023-06-17T02:28:55.104Z,995.94
2023-06-17T02:29:27.962Z,995.94
2023-06-17T02:29:58.839Z,995.73
2023-06-17T02:30:32.722Z,995.73
2023-06-17T02:31:02.823Z,995.94
2023-06-17T02:31:35.060Z,996.04
2023-06-17T02:32:09.787Z,996.04
2023-06-17T02:32:34.183Z,995.83
2023-06-17T02:32:54.844Z,995.83
2023-06-17T02:33:26.756Z,995.83
2023-06-17T02:34:00.727Z,995.94
2023-06-17T02:34:30.778Z,995.94
2023-06-17T02:35:03.727Z,995.83
2023-06-17T02:35:34.197Z,995.83
2023-06-17T02:35:50.734Z,995.83
2023-06-17T02:36:23.913Z,995.83
2023-06-17T02:36:41.084Z,995.94
2023-06-17T02:37:10.793Z,995.94
2023-06-17T02:37:34.107Z,995.53
2023-06-17T02:37:58.886Z,995.53
2023-06-17T02:38:31.775Z,995.53
2023-06-17T02:39:02.762Z,995.83
2023-06-17T02:39:35.134Z,995.83
2023-06-17T02:40:06.732Z,995.83
2023-06-17T02:40:34.327Z,996.14
2023-06-17T02:40:55.660Z,996.14
2023-06-17T02:41:26.780Z,996.14
2023-06-17T02:41:59.544Z,995.94
2023-06-17T02:42:30.792Z,995.94
2023-06-17T02:43:03.656Z,995.94
2023-06-17T02:43:34.164Z,995.83
2023-06-17T02:43:50.653Z,995.83
2023-06-17T02:44:22.747Z,995.83
2023-06-17T02:44:39.960Z,995.94
2023-06-17T02:45:11.585Z,995.94
2023-06-17T02:45:35.043Z,995.94
2023-06-17T02:45:58.933Z,995.94
2023-06-17T02:46:30.773Z,995.94
2023-06-17T02:47:03.456Z,995.73
2023-06-17T02:47:34.103Z,996.04
2023-06-17T02:47:50.658Z,996.04
2023-06-17T02:48:23.805Z,996.04
2023-06-17T02:48:41.257Z,995.83
2023-06-17T02:49:10.782Z,995.83
2023-06-17T02:49:34.146Z,995.83
2023-06-17T02:49:59.818Z,995.83
2023-06-17T02:50:31.748Z,995.83
2023-06-17T02:51:02.749Z,996.04
2023-06-17T02:51:35.012Z,995.73
2023-06-17T02:52:06.768Z,995.73
2023-06-17T02:52:34.305Z,995.83
2023-06-17T02:52:54.756Z,995.83
2023-06-17T02:53:26.770Z,995.83
2023-06-17T02:53:59.527Z,995.94
2023-06-17T02:54:30.771Z,995.94
2023-06-17T02:55:04.748Z,995.73
2023-06-17T02:55:34.143Z,995.73
2023-06-17T02:55:50.648Z,995.73
2023-06-17T02:56:22.766Z,995.73
2023-06-17T02:56:40.185Z,995.73
2023-06-17T02:57:11.642Z,995.73
2023-06-17T02:57:34.123Z,995.63
2023-06-17T02:57:59.888Z,995.63
2023-06-17T02:58:30.755Z,995.63
2023-06-17T02:59:02.874Z,995.94
2023-06-17T02:59:34.133Z,995.83
2023-06-17T02:59:50.602Z,995.83
2023-06-17T03:00:24.298Z,995.83
2023-06-17T03:00:41.897Z,995.73
2023-06-17T03:01:10.838Z,995.73
2023-06-17T03:01:34.146Z,995.63
2023-06-17T03:01:58.877Z,995.63
2023-06-17T03:02:30.950Z,995.63
2023-06-17T03:03:03.756Z,995.83
2023-06-17T03:03:34.235Z,995.73
2023-06-17T03:03:50.611Z,995.73
2023-06-17T03:04:22.732Z,995.73
2023-06-17T03:04:39.942Z,995.83
2023-06-17T03:05:11.688Z,995.83
2023-06-17T03:05:34.146Z,995.73
2023-06-17T03:05:58.803Z,995.73
2023-06-17T03:06:30.716Z,995.73
2023-06-17T03:07:02.783Z,995.83
2023-06-17T03:07:35.930Z,995.94
2023-06-17T03:07:50.622Z,995.94
2023-06-17T03:08:23.765Z,995.94
2023-06-17T03:08:41.029Z,995.83
2023-06-17T03:09:10.756Z,995.83
2023-06-17T03:09:34.135Z,995.73
2023-06-17T03:09:58.750Z,995.73
2023-06-17T03:10:31.616Z,995.73
2023-06-17T03:11:02.737Z,995.94
2023-06-17T03:11:35.034Z,996.14
2023-06-17T03:12:06.725Z,996.14
2023-06-17T03:12:34.100Z,996.14
2023-06-17T03:12:54.695Z,996.14
2023-06-17T03:13:27.082Z,996.14
2023-06-17T03:13:59.626Z,995.94
2023-06-17T03:14:30.727Z,995.94
2023-06-17T03:15:03.686Z,995.73
2023-06-17T03:15:34.620Z,995.83
2023-06-17T03:16:07.640Z,995.83
2023-06-17T03:16:34.750Z,996.24
2023-06-17T03:16:55.817Z,996.24
2023-06-17T03:17:27.734Z,996.24
2023-06-17T03:17:58.907Z,996.14
2023-06-17T03:18:30.724Z,996.14
2023-06-17T03:19:02.825Z,996.04
2023-06-17T03:19:34.127Z,995.94
2023-06-17T03:19:50.671Z,995.94
2023-06-17T03:20:23.993Z,995.94
2023-06-17T03:20:40.967Z,995.83
2023-06-17T03:21:10.806Z,995.83
2023-06-17T03:21:34.462Z,996.04
2023-06-17T03:21:58.849Z,996.04
2023-06-17T03:22:31.734Z,996.04
2023-06-17T03:23:03.669Z,996.04
2023-06-17T03:23:34.198Z,995.83
2023-06-17T03:23:50.717Z,995.83
2023-06-17T03:24:22.906Z,995.83
2023-06-17T03:24:41.128Z,996.04
2023-06-17T03:25:10.794Z,996.04
2023-06-17T03:25:34.185Z,996.14
2023-06-17T03:25:58.972Z,996.14
2023-06-17T03:26:30.901Z,996.14
2023-06-17T03:27:03.889Z,995.83
2023-06-17T03:27:34.676Z,995.83
2023-06-17T03:28:08.640Z,995.83
2023-06-17T03:28:34.149Z,995.94
2023-06-17T03:28:54.766Z,995.94
2023-06-17T03:29:26.887Z,995.94
2023-06-17T03:29:58.752Z,995.83
2023-06-17T03:30:31.833Z,995.83
2023-06-17T03:31:02.815Z,996.04
2023-06-17T03:31:34.134Z,995.94
2023-06-17T03:31:51.643Z,995.94
2023-06-17T03:32:23.799Z,995.94
2023-06-17T03:32:41.864Z,996.04
2023-06-17T03:33:10.788Z,996.04
2023-06-17T03:33:34.330Z,995.94
2023-06-17T03:33:58.797Z,995.94
2023-06-17T03:34:32.793Z,995.94
2023-06-17T03:35:02.773Z,995.83
2023-06-17T03:35:35.035Z,995.83
2023-06-17T03:36:06.797Z,995.83
2023-06-17T03:36:34.118Z,996.04
2023-06-17T03:36:54.790Z,996.04
2023-06-17T03:37:26.720Z,996.04
2023-06-17T03:37:59.605Z,995.73
2023-06-17T03:38:30.783Z,995.73
2023-06-17T03:39:03.737Z,996.04
2023-06-17T03:39:35.998Z,995.73
2023-06-17T03:39:50.687Z,995.73
2023-06-17T03:40:23.097Z,995.73
2023-06-17T03:40:40.039Z,995.83
2023-06-17T03:41:11.663Z,995.83
2023-06-17T03:41:34.188Z,995.73
2023-06-17T03:41:58.833Z,995.73
2023-06-17T03:42:31.005Z,995.73
2023-06-17T03:43:02.738Z,996.04
2023-06-17T03:43:34.682Z,995.94
2023-06-17T03:44:06.805Z,995.94
2023-06-17T03:44:34.151Z,995.83
2023-06-17T03:44:54.777Z,995.83
2023-06-17T03:45:33.590Z,995.83
2023-06-17T03:46:11.759Z,995.83
2023-06-17T03:46:14.793Z,995.73
2023-06-17T03:46:35.180Z,995.94
2023-06-17T03:47:02.756Z,995.94
2023-06-17T03:47:34.223Z,996.04
2023-06-17T03:47:52.900Z,996.04
2023-06-17T03:48:23.723Z,996.04
2023-06-17T03:48:40.065Z,995.83
2023-06-17T03:49:10.774Z,995.83
2023-06-17T03:49:34.113Z,995.83
2023-06-17T03:50:01.025Z,995.83
2023-06-17T03:50:30.757Z,995.83
2023-06-17T03:51:03.640Z,995.63
2023-06-17T03:51:34.169Z,996.04
2023-06-17T03:51:50.673Z,996.04
2023-06-17T03:52:22.812Z,996.04
2023-06-17T03:52:40.933Z,996.04
2023-06-17T03:53:11.880Z,996.04
2023-06-17T03:53:34.220Z,996.14
2023-06-17T03:53:59.080Z,996.14
2023-06-17T03:54:30.772Z,996.14
2023-06-17T03:55:04.736Z,995.83
2023-06-17T03:55:34.639Z,996.14
2023-06-17T03:56:06.760Z,996.14
2023-06-17T03:56:34.153Z,995.94
2023-06-17T03:56:54.713Z,995.94
2023-06-17T03:57:27.635Z,995.94
2023-06-17T03:57:58.727Z,995.94
2023-06-17T03:58:31.716Z,995.94
2023-06-17T03:59:02.705Z,996.14
2023-06-17T03:59:35.564Z,995.73
2023-06-17T04:00:06.926Z,995.73
2023-06-17T04:00:34.154Z,996.04
2023-06-17T04:00:54.703Z,996.04
2023-06-17T04:01:27.034Z,996.04
2023-06-17T04:02:00.677Z,995.94
2023-06-17T04:02:30.872Z,995.94
2023-06-17T04:03:03.756Z,996.24
2023-06-17T04:03:34.273Z,996.04
2023-06-17T04:03:50.763Z,996.04
2023-06-17T04:04:29.062Z,996.04
2023-06-17T04:04:34.397Z,996.14
2023-06-17T04:04:55.467Z,996.14
2023-06-17T04:05:26.685Z,996.14
2023-06-17T04:05:58.776Z,996.04
2023-06-17T04:06:30.740Z,996.04
2023-06-17T04:07:02.825Z,995.83
2023-06-17T04:07:34.199Z,995.94
2023-06-17T04:07:50.665Z,995.94
2023-06-17T04:08:24.507Z,995.94
2023-06-17T04:08:41.790Z,995.94
2023-06-17T04:09:10.703Z,995.94
2023-06-17T04:09:34.143Z,995.83
2023-06-17T04:10:21.705Z,995.83
2023-06-17T04:10:31.780Z,995.83
2023-06-17T04:11:02.739Z,995.94
2023-06-17T04:11:35.909Z,995.73
2023-06-17T04:12:06.788Z,995.73
2023-06-17T04:12:35.326Z,995.94
2023-06-17T04:12:54.781Z,995.94
2023-06-17T04:13:26.756Z,995.94
2023-06-17T04:14:00.530Z,996.04
2023-06-17T04:14:30.788Z,996.04
2023-06-17T04:15:03.647Z,995.94
2023-06-17T04:15:34.280Z,996.04
2023-06-17T04:15:50.662Z,996.04
2023-06-17T04:16:22.998Z,996.04
2023-06-17T04:16:40.265Z,996.04
2023-06-17T04:17:12.664Z,996.04
2023-06-17T04:17:34.142Z,995.94
2023-06-17T04:17:58.812Z,995.94
2023-06-17T04:18:30.757Z,995.94
2023-06-17T04:19:03.743Z,995.73
2023-06-17T04:19:34.199Z,995.83
2023-06-17T04:19:50.636Z,995.83
2023-06-17T04:20:24.691Z,995.83
2023-06-17T04:20:40.891Z,996.14
2023-06-17T04:21:10.732Z,996.14
2023-06-17T04:21:34.204Z,995.94
2023-06-17T04:21:58.768Z,995.94
2023-06-17T04:22:31.940Z,995.94
2023-06-17T04:23:02.714Z,996.04
2023-06-17T04:23:40.852Z,996.04
2023-06-17T04:23:46.676Z,996.04
2023-06-17T04:24:06.816Z,996.04
2023-06-17T04:24:34.449Z,996.04
2023-06-17T04:24:58.184Z,996.04
2023-06-17T04:25:26.691Z,996.04
2023-06-17T04:26:00.665Z,995.94
2023-06-17T04:26:31.719Z,995.94
2023-06-17T04:27:04.680Z,996.04
2023-06-17T04:27:34.245Z,996.04
2023-06-17T04:27:50.657Z,996.04
2023-06-17T04:28:22.791Z,996.04
2023-06-17T04:28:39.967Z,995.94
2023-06-17T04:29:11.665Z,995.94
2023-06-17T04:29:34.333Z,995.94
2023-06-17T04:29:58.744Z,995.94
2023-06-17T04:30:30.787Z,995.94
2023-06-17T04:31:02.774Z,996.24
2023-06-17T04:31:34.156Z,996.04
2023-06-17T04:31:50.724Z,996.04
2023-06-17T04:32:25.070Z,996.04
2023-06-17T04:33:03.275Z,996.04
2023-06-17T04:33:12.790Z,995.94
2023-06-17T04:33:34.232Z,996.04
2023-06-17T04:33:58.741Z,996.04
2023-06-17T04:34:32.627Z,996.04
2023-06-17T04:35:02.734Z,995.94
2023-06-17T04:35:35.596Z,995.94
2023-06-17T04:36:06.748Z,995.94
2023-06-17T04:36:34.166Z,995.83
2023-06-17T04:36:54.926Z,995.83
2023-06-17T04:37:26.639Z,995.83
2023-06-17T04:37:59.753Z,995.73
2023-06-17T04:38:30.692Z,995.73
2023-06-17T04:39:03.683Z,995.83
2023-06-17T04:39:34.188Z,995.94
2023-06-17T04:39:50.980Z,995.94
2023-06-17T04:40:23.367Z,995.94
2023-06-17T04:40:40.020Z,995.94
2023-06-17T04:41:18.156Z,995.94
2023-06-17T04:41:27.768Z,995.94
2023-06-17T04:41:58.715Z,995.94
2023-06-17T04:42:32.461Z,995.94
2023-06-17T04:43:02.708Z,995.83
2023-06-17T04:43:35.065Z,996.04
2023-06-17T04:44:06.786Z,996.04
2023-06-17T04:44:34.156Z,995.94
2023-06-17T04:44:54.705Z,995.94
2023-06-17T04:45:27.025Z,995.94
2023-06-17T04:45:59.588Z,995.94
2023-06-17T04:46:30.727Z,995.94
2023-06-17T04:47:03.549Z,995.94
2023-06-17T04:47:35.991Z,996.04
2023-06-17T04:47:50.783Z,996.04
2023-06-17T04:48:22.695Z,996.04
2023-06-17T04:48:39.913Z,995.83
2023-06-17T04:49:11.682Z,995.83
2023-06-17T04:49:34.343Z,996.04
2023-06-17T04:49:58.739Z,996.04
2023-06-17T04:50:30.693Z,996.04
2023-06-17T04:51:02.686Z,995.83
2023-06-17T04:51:34.191Z,995.94
2023-06-17T04:51:50.698Z,995.94
2023-06-17T04:52:23.575Z,995.94
2023-06-17T04:52:41.062Z,995.83
2023-06-17T04:53:10.683Z,995.83
2023-06-17T04:53:34.765Z,996.14
2023-06-17T04:53:58.716Z,996.14
2023-06-17T04:54:31.539Z,996.14
2023-06-17T04:55:02.755Z,995.94
2023-06-17T04:55:35.058Z,995.83
2023-06-17T04:56:06.693Z,995.83
2023-06-17T04:56:34.264Z,995.83
2023-06-17T04:56:54.740Z,995.83
2023-06-17T04:57:26.624Z,995.83
2023-06-17T04:57:59.637Z,996.14
2023-06-17T04:58:30.641Z,996.14
2023-06-17T04:59:03.727Z,995.94
2023-06-17T04:59:36.183Z,996.04
2023-06-17T05:00:07.635Z,996.04
2023-06-17T05:00:34.148Z,996.14
2023-06-17T05:00:54.723Z,996.14
2023-06-17T05:01:26.736Z,996.14
2023-06-17T05:01:58.721Z,996.14
2023-06-17T05:02:30.677Z,996.14
2023-06-17T05:03:02.766Z,996.04
2023-06-17T05:03:34.397Z,996.04
2023-06-17T05:03:50.675Z,996.04
2023-06-17T05:04:24.749Z,996.04
2023-06-17T05:04:41.922Z,996.24
2023-06-17T05:05:10.703Z,996.24
2023-06-17T05:05:34.220Z,996.04
2023-06-17T05:05:58.686Z,996.04
2023-06-17T05:06:31.607Z,996.04
2023-06-17T05:07:02.650Z,995.94
2023-06-17T05:07:35.115Z,996.04
2023-06-17T05:08:13.278Z,996.04
2023-06-17T05:08:22.603Z,996.04
2023-06-17T05:08:40.807Z,996.14
2023-06-17T05:09:10.618Z,996.14
2023-06-17T05:09:34.141Z,996.14
2023-06-17T05:09:58.673Z,996.14
2023-06-17T05:10:30.675Z,996.14
2023-06-17T05:11:03.647Z,995.94
2023-06-17T05:11:34.132Z,996.14
2023-06-17T05:11:50.677Z,996.14
2023-06-17T05:12:24.282Z,996.14
2023-06-17T05:12:40.923Z,996.24
2023-06-17T05:13:10.708Z,996.24
2023-06-17T05:13:35.036Z,996.14
2023-06-17T05:13:58.719Z,996.14
2023-06-17T05:14:30.796Z,996.14
2023-06-17T05:15:02.697Z,996.04
2023-06-17T05:15:34.189Z,996.04
2023-06-17T05:15:51.596Z,996.04
2023-06-17T05:16:22.761Z,996.04
2023-06-17T05:16:40.043Z,995.94
2023-06-17T05:17:10.634Z,995.94
2023-06-17T05:17:34.600Z,996.04
2023-06-17T05:17:59.574Z,996.04
2023-06-17T05:18:30.683Z,996.04
2023-06-17T05:19:03.706Z,995.94
2023-06-17T05:19:34.112Z,996.14
2023-06-17T05:19:50.690Z,996.14
2023-06-17T05:20:22.821Z,996.14
2023-06-17T05:20:40.089Z,996.04
2023-06-17T05:21:11.440Z,996.04
2023-06-17T05:21:34.187Z,996.14
2023-06-17T05:21:58.650Z,996.14
2023-06-17T05:22:30.651Z,996.14
2023-06-17T05:23:02.856Z,996.04
2023-06-17T05:23:34.467Z,996.24
2023-06-17T05:23:50.778Z,996.24
2023-06-17T05:24:22.715Z,996.24
2023-06-17T05:24:40.866Z,996.24
2023-06-17T05:25:10.623Z,996.24
2023-06-17T05:25:34.333Z,995.94
2023-06-17T05:25:58.634Z,995.94
2023-06-17T05:26:30.621Z,995.94
2023-06-17T05:27:03.674Z,996.04
2023-06-17T05:27:34.183Z,996.14
2023-06-17T05:27:50.724Z,996.14
2023-06-17T05:28:22.621Z,996.14
2023-06-17T05:28:39.906Z,996.04
2023-06-17T05:29:11.718Z,996.04
2023-06-17T05:29:34.137Z,996.24
2023-06-17T05:29:58.726Z,996.24
2023-06-17T05:30:30.708Z,996.24
2023-06-17T05:31:02.668Z,996.14
2023-06-17T05:31:34.144Z,996.24
2023-06-17T05:31:50.628Z,996.24
2023-06-17T05:32:23.533Z,996.24
2023-06-17T05:32:41.988Z,996.04
2023-06-17T05:33:10.723Z,996.04
2023-06-17T05:33:34.115Z,996.14
2023-06-17T05:33:58.594Z,996.14
2023-06-17T05:34:32.585Z,996.14
2023-06-17T05:35:02.625Z,996.04
2023-06-17T05:35:36.264Z,996.14
2023-06-17T05:36:06.668Z,996.14
2023-06-17T05:36:34.124Z,996.14
2023-06-17T05:36:54.588Z,996.14
2023-06-17T05:37:26.639Z,996.14
2023-06-17T05:38:00.563Z,996.04
2023-06-17T05:38:30.675Z,996.04
2023-06-17T05:39:03.715Z,996.31
2023-06-17T05:39:34.242Z,996.14
2023-06-17T05:39:50.742Z,996.14
2023-06-17T05:40:22.972Z,996.14
2023-06-17T05:40:39.922Z,996.24
2023-06-17T05:41:10.666Z,996.24
2023-06-17T05:41:34.472Z,996.04
2023-06-17T05:41:58.718Z,996.04
2023-06-17T05:42:31.551Z,996.04
2023-06-17T05:43:02.705Z,996.04
2023-06-17T05:43:35.104Z,996.24
2023-06-17T05:44:06.761Z,996.24
2023-06-17T05:44:34.223Z,996.24
2023-06-17T05:44:54.664Z,996.24
2023-06-17T05:45:26.897Z,996.24
2023-06-17T05:45:59.629Z,996.14
2023-06-17T05:46:31.116Z,996.14
2023-06-17T05:47:03.588Z,996.14
2023-06-17T05:47:34.221Z,996.31